sensor_id;sensor_type;location;lat;lon;timestamp;pressure;altitude;pressure_sealevel;temperature;humidity
48035;BME280;33812;46.480;6.834;2023-04-08T00:01:49;93748.16;;;21.87;33.04
48035;BME280;33812;46.480;6.834;2023-04-08T00:05:53;93747.38;;;21.86;33.33
48035;BME280;33812;46.480;6.834;2023-04-08T00:09:54;93748.91;;;21.88;33.06
48035;BME280;33812;46.480;6.834;2023-04-08T00:13:56;93743.84;;;21.86;33.19
48035;BME280;33812;46.480;6.834;2023-04-08T00:17:58;93744.63;;;21.86;33.22
48035;BME280;33812;46.480;6.834;2023-04-08T00:22:01;93745.06;;;21.85;33.03
48035;BME280;33812;46.480;6.834;2023-04-08T00:26:03;93736.44;;;21.83;33.21
48035;BME280;33812;46.480;6.834;2023-04-08T00:30:06;93735.97;;;21.84;33.31
48035;BME280;33812;46.480;6.834;2023-04-08T00:34:08;93738.75;;;21.84;33.31
48035;BME280;33812;46.480;6.834;2023-04-08T00:38:11;93743.50;;;21.84;33.22
48035;BME280;33812;46.480;6.834;2023-04-08T00:42:13;93737.66;;;21.82;33.47
48035;BME280;33812;46.480;6.834;2023-04-08T00:46:14;93743.50;;;21.84;33.50
48035;BME280;33812;46.480;6.834;2023-04-08T00:50:17;93737.97;;;21.84;33.43
48035;BME280;33812;46.480;6.834;2023-04-08T00:54:21;93734.88;;;21.82;33.18
48035;BME280;33812;46.480;6.834;2023-04-08T00:58:22;93733.31;;;21.81;33.22
48035;BME280;33812;46.480;6.834;2023-04-08T01:02:30;93737.66;;;21.82;33.29
48035;BME280;33812;46.480;6.834;2023-04-08T01:06:38;93737.66;;;21.82;33.32
48035;BME280;33812;46.480;6.834;2023-04-08T01:10:44;93732.13;;;21.82;33.11
48035;BME280;33812;46.480;6.834;2023-04-08T01:14:51;93737.66;;;21.82;33.11
48035;BME280;33812;46.480;6.834;2023-04-08T01:18:55;93744.38;;;21.81;33.17
48035;BME280;33812;46.480;6.834;2023-04-08T01:23:04;93734.56;;;21.80;33.22
48035;BME280;33812;46.480;6.834;2023-04-08T01:27:13;93739.31;;;21.79;33.07
48035;BME280;33812;46.480;6.834;2023-04-08T01:31:15;93734.56;;;21.80;33.00
48035;BME280;33812;46.480;6.834;2023-04-08T01:35:17;93742.06;;;21.79;33.04
48035;BME280;33812;46.480;6.834;2023-04-08T01:39:20;93732.97;;;21.79;33.06
48035;BME280;33812;46.480;6.834;2023-04-08T01:43:23;93732.97;;;21.79;32.93
48035;BME280;33812;46.480;6.834;2023-04-08T01:47:26;93728.66;;;21.78;32.80
48035;BME280;33812;46.480;6.834;2023-04-08T01:51:29;93729.44;;;21.78;32.76
48035;BME280;33812;46.480;6.834;2023-04-08T01:55:32;93721.59;;;21.77;32.81
48035;BME280;33812;46.480;6.834;2023-04-08T01:59:37;93731.41;;;21.78;32.59
48035;BME280;33812;46.480;6.834;2023-04-08T02:03:41;93725.56;;;21.76;32.73
48035;BME280;33812;46.480;6.834;2023-04-08T02:07:46;93729.53;;;21.74;32.70
48035;BME280;33812;46.480;6.834;2023-04-08T02:11:48;93726.78;;;21.74;32.64
48035;BME280;33812;46.480;6.834;2023-04-08T02:15:56;93735.53;;;21.73;32.70
48035;BME280;33812;46.480;6.834;2023-04-08T02:24:04;93733.50;;;21.73;32.57
48035;BME280;33812;46.480;6.834;2023-04-08T02:28:09;93733.22;;;21.71;32.64
48035;BME280;33812;46.480;6.834;2023-04-08T02:32:14;93731.97;;;21.72;32.54
48035;BME280;33812;46.480;6.834;2023-04-08T02:36:17;93735.97;;;21.71;32.53
48035;BME280;33812;46.480;6.834;2023-04-08T02:44:25;93736.38;;;21.70;32.44
48035;BME280;33812;46.480;6.834;2023-04-08T02:48:28;93737.63;;;21.69;32.40
48035;BME280;33812;46.480;6.834;2023-04-08T02:52:30;93734.84;;;21.69;32.40
48035;BME280;33812;46.480;6.834;2023-04-08T02:56:32;93742.38;;;21.68;32.49
48035;BME280;33812;46.480;6.834;2023-04-08T03:00:34;93749.13;;;21.67;32.36
48035;BME280;33812;46.480;6.834;2023-04-08T03:04:38;93745.56;;;21.67;32.34
48035;BME280;33812;46.480;6.834;2023-04-08T03:08:39;93734.97;;;21.65;32.47
48035;BME280;33812;46.480;6.834;2023-04-08T03:12:41;93740.03;;;21.67;32.44
48035;BME280;33812;46.480;6.834;2023-04-08T03:16:43;93738.94;;;21.64;32.28
48035;BME280;33812;46.480;6.834;2023-04-08T03:20:46;93747.25;;;21.64;32.10
48035;BME280;33812;46.480;6.834;2023-04-08T03:24:48;93748.78;;;21.65;32.20
48035;BME280;33812;46.480;6.834;2023-04-08T03:28:51;93739.72;;;21.65;32.38
48035;BME280;33812;46.480;6.834;2023-04-08T03:32:54;93743.25;;;21.65;32.21
48035;BME280;33812;46.480;6.834;2023-04-08T03:36:57;93741.72;;;21.64;32.22
48035;BME280;33812;46.480;6.834;2023-04-08T03:40:59;93747.25;;;21.64;32.14
48035;BME280;33812;46.480;6.834;2023-04-08T03:45:01;93743.69;;;21.64;32.37
48035;BME280;33812;46.480;6.834;2023-04-08T03:49:04;93743.69;;;21.64;32.40
48035;BME280;33812;46.480;6.834;2023-04-08T03:53:07;93742.91;;;21.63;32.36
48035;BME280;33812;46.480;6.834;2023-04-08T03:57:10;93745.69;;;21.63;32.44
48035;BME280;33812;46.480;6.834;2023-04-08T04:01:12;93744.94;;;21.62;32.31
48035;BME280;33812;46.480;6.834;2023-04-08T04:05:14;93742.59;;;21.61;32.41
48035;BME280;33812;46.480;6.834;2023-04-08T04:09:17;93741.03;;;21.60;32.20
48035;BME280;33812;46.480;6.834;2023-04-08T04:13:19;93738.28;;;21.60;32.29
48035;BME280;33812;46.480;6.834;2023-04-08T04:17:21;93746.56;;;21.60;32.25
48035;BME280;33812;46.480;6.834;2023-04-08T04:21:24;93745.03;;;21.59;32.31
48035;BME280;33812;46.480;6.834;2023-04-08T04:25:27;93743.47;;;21.58;32.17
48035;BME280;33812;46.480;6.834;2023-04-08T04:29:30;93749.00;;;21.58;32.14
48035;BME280;33812;46.480;6.834;2023-04-08T04:33:31;93754.53;;;21.58;32.08
48035;BME280;33812;46.480;6.834;2023-04-08T04:37:33;93758.88;;;21.59;32.11
48035;BME280;33812;46.480;6.834;2023-04-08T04:41:37;93767.59;;;21.57;32.05
48035;BME280;33812;46.480;6.834;2023-04-08T04:45:39;93766.81;;;21.57;32.06
48035;BME280;33812;46.480;6.834;2023-04-08T04:49:41;93765.59;;;21.58;32.06
48035;BME280;33812;46.480;6.834;2023-04-08T04:53:45;93775.13;;;21.57;32.00
48035;BME280;33812;46.480;6.834;2023-04-08T04:57:48;93779.06;;;21.56;31.95
48035;BME280;33812;46.480;6.834;2023-04-08T05:01:50;93777.53;;;21.55;31.98
48035;BME280;33812;46.480;6.834;2023-04-08T05:05:52;93786.28;;;21.53;32.04
48035;BME280;33812;46.480;6.834;2023-04-08T05:09:54;93779.22;;;21.52;32.06
48035;BME280;33812;46.480;6.834;2023-04-08T05:13:57;93788.59;;;21.55;32.07
48035;BME280;33812;46.480;6.834;2023-04-08T05:17:59;93785.50;;;21.53;31.65
48035;BME280;33812;46.480;6.834;2023-04-08T05:22:01;93788.25;;;21.53;31.72
48035;BME280;33812;46.480;6.834;2023-04-08T05:26:06;93793.34;;;21.54;31.60
48035;BME280;33812;46.480;6.834;2023-04-08T05:30:10;93792.25;;;21.52;31.61
48035;BME280;33812;46.480;6.834;2023-04-08T05:34:12;93800.53;;;21.52;31.68
48035;BME280;33812;46.480;6.834;2023-04-08T05:38:15;93802.09;;;21.53;31.87
48035;BME280;33812;46.480;6.834;2023-04-08T05:42:16;93795.47;;;21.50;31.36
48035;BME280;33812;46.480;6.834;2023-04-08T05:46:20;93804.50;;;21.50;31.19
48035;BME280;33812;46.480;6.834;2023-04-08T05:50:21;93806.19;;;21.48;31.74
48035;BME280;33812;46.480;6.834;2023-04-08T05:54:23;93817.69;;;21.46;31.70
48035;BME280;33812;46.480;6.834;2023-04-08T05:58:25;93811.72;;;21.48;31.45
48035;BME280;33812;46.480;6.834;2023-04-08T06:02:29;93819.56;;;21.49;31.71
48035;BME280;33812;46.480;6.834;2023-04-08T06:06:30;93832.16;;;21.50;32.42
48035;BME280;33812;46.480;6.834;2023-04-08T06:10:33;93834.50;;;21.52;32.43
48035;BME280;33812;46.480;6.834;2023-04-08T06:14:36;93843.22;;;21.50;32.42
48035;BME280;33812;46.480;6.834;2023-04-08T06:18:40;93840.91;;;21.49;32.66
48035;BME280;33812;46.480;6.834;2023-04-08T06:22:43;93839.25;;;21.52;32.36
48035;BME280;33812;46.480;6.834;2023-04-08T06:26:47;93840.16;;;21.48;32.38
48035;BME280;33812;46.480;6.834;2023-04-08T06:30:49;93837.69;;;21.50;32.27
48035;BME280;33812;46.480;6.834;2023-04-08T06:34:52;93836.16;;;21.49;32.53
48035;BME280;33812;46.480;6.834;2023-04-08T06:38:54;93836.50;;;21.52;32.51
48035;BME280;33812;46.480;6.834;2023-04-08T06:42:55;93836.16;;;21.49;32.39
48035;BME280;33812;46.480;6.834;2023-04-08T06:46:57;93836.94;;;21.50;32.35
48035;BME280;33812;46.480;6.834;2023-04-08T06:51:00;93830.63;;;21.49;31.52
48035;BME280;33812;46.480;6.834;2023-04-08T06:55:02;93834.63;;;21.48;32.24
48035;BME280;33812;46.480;6.834;2023-04-08T06:59:04;93840.16;;;21.48;32.04
48035;BME280;33812;46.480;6.834;2023-04-08T07:03:06;93840.16;;;21.48;31.95
48035;BME280;33812;46.480;6.834;2023-04-08T07:07:09;93843.66;;;21.49;32.08
48035;BME280;33812;46.480;6.834;2023-04-08T07:11:11;93841.69;;;21.49;32.57
48035;BME280;33812;46.480;6.834;2023-04-08T07:15:13;93842.91;;;21.48;31.98
48035;BME280;33812;46.480;6.834;2023-04-08T07:19:15;93848.00;;;21.50;32.24
48035;BME280;33812;46.480;6.834;2023-04-08T07:23:19;93857.06;;;21.50;32.14
48035;BME280;33812;46.480;6.834;2023-04-08T07:27:21;93850.31;;;21.52;32.22
48035;BME280;33812;46.480;6.834;2023-04-08T07:31:22;93854.28;;;21.50;32.43
48035;BME280;33812;46.480;6.834;2023-04-08T07:35:25;93855.84;;;21.52;32.50
48035;BME280;33812;46.480;6.834;2023-04-08T07:39:28;93861.38;;;21.52;32.11
48035;BME280;33812;46.480;6.834;2023-04-08T07:43:30;93866.47;;;21.53;31.92
48035;BME280;33812;46.480;6.834;2023-04-08T07:47:33;93871.22;;;21.53;31.85
48035;BME280;33812;46.480;6.834;2023-04-08T07:51:36;93869.69;;;21.52;31.88
48035;BME280;33812;46.480;6.834;2023-04-08T07:55:40;93870.88;;;21.50;32.06
48035;BME280;33812;46.480;6.834;2023-04-08T07:59:41;93873.22;;;21.52;31.87
48035;BME280;33812;46.480;6.834;2023-04-08T08:03:43;93873.22;;;21.52;31.82
48035;BME280;33812;46.480;6.834;2023-04-08T08:07:46;93885.03;;;21.53;31.68
48035;BME280;33812;46.480;6.834;2023-04-08T08:11:51;93891.81;;;21.52;31.47
48035;BME280;33812;46.480;6.834;2023-04-08T08:15:53;93887.81;;;21.53;31.61
48035;BME280;33812;46.480;6.834;2023-04-08T08:19:55;93884.69;;;21.50;31.50
48035;BME280;33812;46.480;6.834;2023-04-08T08:23:57;93883.50;;;21.52;31.71
48035;BME280;33812;46.480;6.834;2023-04-08T08:28:00;93894.22;;;21.49;31.54
48035;BME280;33812;46.480;6.834;2023-04-08T08:32:02;93893.00;;;21.50;31.65
48035;BME280;33812;46.480;6.834;2023-04-08T08:36:04;93896.53;;;21.51;31.49
48035;BME280;33812;46.480;6.834;2023-04-08T08:40:07;93897.34;;;21.52;31.62
48035;BME280;33812;46.480;6.834;2023-04-08T08:44:13;93899.31;;;21.51;31.37
48035;BME280;33812;46.480;6.834;2023-04-08T08:48:15;93894.56;;;21.52;31.50
48035;BME280;33812;46.480;6.834;2023-04-08T08:52:16;93895.34;;;21.52;31.57
48035;BME280;33812;46.480;6.834;2023-04-08T08:56:18;93896.09;;;21.53;31.35
48035;BME280;33812;46.480;6.834;2023-04-08T09:00:31;93886.72;;;21.50;31.28
48035;BME280;33812;46.480;6.834;2023-04-08T09:04:33;93894.56;;;21.52;31.25
48035;BME280;33812;46.480;6.834;2023-04-08T09:08:36;93892.16;;;21.54;31.18
48035;BME280;33812;46.480;6.834;2023-04-08T09:12:52;93895.66;;;21.54;31.39
48035;BME280;33812;46.480;6.834;2023-04-08T09:16:56;93900.75;;;21.56;31.76
48035;BME280;33812;46.480;6.834;2023-04-08T09:21:01;93896.00;;;21.56;31.92
48035;BME280;33812;46.480;6.834;2023-04-08T09:25:21;93896.00;;;21.56;31.90
48035;BME280;33812;46.480;6.834;2023-04-08T09:29:24;93896.78;;;21.57;32.18
48035;BME280;33812;46.480;6.834;2023-04-08T09:33:31;93890.47;;;21.56;31.42
48035;BME280;33812;46.480;6.834;2023-04-08T09:37:33;93891.25;;;21.57;31.75
48035;BME280;33812;46.480;6.834;2023-04-08T09:46:10;93897.13;;;21.59;32.11
48035;BME280;33812;46.480;6.834;2023-04-08T09:50:14;93898.25;;;21.61;32.09
48035;BME280;33812;46.480;6.834;2023-04-08T09:54:19;93891.94;;;21.61;32.04
48035;BME280;33812;46.480;6.834;2023-04-08T09:58:27;93884.41;;;21.61;32.03
48035;BME280;33812;46.480;6.834;2023-04-08T10:02:34;93903.31;;;21.63;33.05
48035;BME280;33812;46.480;6.834;2023-04-08T10:06:41;93895.03;;;21.63;33.33
48035;BME280;33812;46.480;6.834;2023-04-08T10:10:44;93893.84;;;21.64;33.71
48035;BME280;33812;46.480;6.834;2023-04-08T10:15:20;93889.84;;;21.65;34.04
48035;BME280;33812;46.480;6.834;2023-04-08T10:19:38;93887.84;;;21.66;34.31
48035;BME280;33812;46.480;6.834;2023-04-08T10:23:54;93881.09;;;21.67;34.26
48035;BME280;33812;46.480;6.834;2023-04-08T10:27:59;93883.44;;;21.68;34.89
48035;BME280;33812;46.480;6.834;2023-04-08T10:32:01;93883.13;;;21.66;35.22
48035;BME280;33812;46.480;6.834;2023-04-08T10:36:10;93882.66;;;21.68;35.29
48035;BME280;33812;46.480;6.834;2023-04-08T10:40:18;93873.16;;;21.69;35.02
48035;BME280;33812;46.480;6.834;2023-04-08T10:44:23;93873.16;;;21.69;34.81
48035;BME280;33812;46.480;6.834;2023-04-08T10:48:26;93871.91;;;21.70;35.01
48035;BME280;33812;46.480;6.834;2023-04-08T10:52:30;93871.91;;;21.70;34.76
48035;BME280;33812;46.480;6.834;2023-04-08T10:56:34;93876.69;;;21.69;34.18
48035;BME280;33812;46.480;6.834;2023-04-08T11:00:38;93875.47;;;21.70;34.86
48035;BME280;33812;46.480;6.834;2023-04-08T11:08:44;93871.91;;;21.70;34.75
48035;BME280;33812;46.480;6.834;2023-04-08T11:12:47;93869.50;;;21.72;34.58
48035;BME280;33812;46.480;6.834;2023-04-08T11:20:52;93869.84;;;21.74;34.33
48035;BME280;33812;46.480;6.834;2023-04-08T11:24:56;93879.25;;;21.77;34.65
48035;BME280;33812;46.480;6.834;2023-04-08T11:28:58;93854.38;;;21.77;35.02
48035;BME280;33812;46.480;6.834;2023-04-08T11:33:00;93868.88;;;21.81;36.65
48035;BME280;33812;46.480;6.834;2023-04-08T11:37:02;93862.91;;;21.82;36.77
48035;BME280;33812;46.480;6.834;2023-04-08T11:41:05;93858.16;;;21.83;36.61
48035;BME280;33812;46.480;6.834;2023-04-08T11:45:10;93860.47;;;21.84;36.39
48035;BME280;33812;46.480;6.834;2023-04-08T11:49:13;93857.72;;;21.84;35.92
48035;BME280;33812;46.480;6.834;2023-04-08T11:53:18;93862.03;;;21.85;36.10
48035;BME280;33812;46.480;6.834;2023-04-08T11:57:29;93849.41;;;21.84;35.97
48035;BME280;33812;46.480;6.834;2023-04-08T12:01:33;93847.44;;;21.85;36.22
48035;BME280;33812;46.480;6.834;2023-04-08T12:05:34;93850.53;;;21.87;35.94
48035;BME280;33812;46.480;6.834;2023-04-08T12:09:36;93855.28;;;21.86;36.13
48035;BME280;33812;46.480;6.834;2023-04-08T12:13:39;93842.69;;;21.85;35.96
48035;BME280;33812;46.480;6.834;2023-04-08T12:17:41;93851.72;;;21.86;35.91
48035;BME280;33812;46.480;6.834;2023-04-08T12:21:43;93853.75;;;21.85;35.95
48035;BME280;33812;46.480;6.834;2023-04-08T12:25:45;93852.97;;;21.85;35.68
48035;BME280;33812;46.480;6.834;2023-04-08T12:29:48;93855.72;;;21.85;35.69
48035;BME280;33812;46.480;6.834;2023-04-08T12:33:51;93849.75;;;21.86;35.74
48035;BME280;33812;46.480;6.834;2023-04-08T12:37:57;93843.00;;;21.88;35.73
48035;BME280;33812;46.480;6.834;2023-04-08T12:42:01;93842.53;;;21.89;35.63
48035;BME280;33812;46.480;6.834;2023-04-08T12:46:09;93843.00;;;21.88;35.58
48035;BME280;33812;46.480;6.834;2023-04-08T12:50:11;93845.31;;;21.89;35.52
48035;BME280;33812;46.480;6.834;2023-04-08T12:54:13;93833.81;;;21.91;35.59
48035;BME280;33812;46.480;6.834;2023-04-08T12:58:16;93837.00;;;21.89;35.78
48035;BME280;33812;46.480;6.834;2023-04-08T13:02:23;93838.56;;;21.90;35.81
48035;BME280;33812;46.480;6.834;2023-04-08T13:06:33;93839.78;;;21.89;35.51
48035;BME280;33812;46.480;6.834;2023-04-08T13:10:42;93831.91;;;21.88;35.57
48035;BME280;33812;46.480;6.834;2023-04-08T13:14:45;93838.25;;;21.88;35.64
48035;BME280;33812;46.480;6.834;2023-04-08T13:18:48;93820.97;;;21.84;34.16
48035;BME280;33812;46.480;6.834;2023-04-08T13:22:51;93835.25;;;21.82;34.02
48035;BME280;33812;46.480;6.834;2023-04-08T13:26:53;93832.47;;;21.82;33.49
48035;BME280;33812;46.480;6.834;2023-04-08T13:31:01;93824.16;;;21.82;33.59
48035;BME280;33812;46.480;6.834;2023-04-08T13:35:05;93828.16;;;21.81;33.17
48035;BME280;33812;46.480;6.834;2023-04-08T13:39:07;93840.00;;;21.82;33.47
48035;BME280;33812;46.480;6.834;2023-04-08T13:43:09;93827.38;;;21.81;32.67
48035;BME280;33812;46.480;6.834;2023-04-08T13:47:10;93833.69;;;21.81;33.40
48035;BME280;33812;46.480;6.834;2023-04-08T13:51:14;93834.78;;;21.84;33.73
48035;BME280;33812;46.480;6.834;2023-04-08T13:55:16;93821.75;;;21.84;33.64
48035;BME280;33812;46.480;6.834;2023-04-08T13:59:17;93832.81;;;21.84;34.23
48035;BME280;33812;46.480;6.834;2023-04-08T14:03:19;93828.84;;;21.85;33.81
48035;BME280;33812;46.480;6.834;2023-04-08T14:07:23;93824.84;;;21.86;33.84
48035;BME280;33812;46.480;6.834;2023-04-08T14:11:24;93833.94;;;21.87;33.40
48035;BME280;33812;46.480;6.834;2023-04-08T14:15:26;93835.91;;;21.86;33.75
48035;BME280;33812;46.480;6.834;2023-04-08T14:19:28;93842.22;;;21.87;33.57
48035;BME280;33812;46.480;6.834;2023-04-08T14:23:31;93838.78;;;21.83;33.32
48035;BME280;33812;46.480;6.834;2023-04-08T14:27:33;93843.88;;;21.84;33.67
48035;BME280;33812;46.480;6.834;2023-04-08T14:31:35;93848.22;;;21.85;34.14
48035;BME280;33812;46.480;6.834;2023-04-08T14:35:36;93847.44;;;21.85;33.51
48035;BME280;33812;46.480;6.834;2023-04-08T14:39:39;93850.19;;;21.85;33.42
48035;BME280;33812;46.480;6.834;2023-04-08T14:43:41;93850.53;;;21.87;33.57
48035;BME280;33812;46.480;6.834;2023-04-08T14:47:43;93850.19;;;21.85;33.51
48035;BME280;33812;46.480;6.834;2023-04-08T14:51:45;93852.06;;;21.88;34.22
48035;BME280;33812;46.480;6.834;2023-04-08T14:55:48;93852.84;;;21.89;33.09
48035;BME280;33812;46.480;6.834;2023-04-08T14:59:50;93857.16;;;21.90;33.19
48035;BME280;33812;46.480;6.834;2023-04-08T15:03:54;93858.38;;;21.89;33.76
48035;BME280;33812;46.480;6.834;2023-04-08T15:07:56;93846.19;;;21.86;32.93
48035;BME280;33812;46.480;6.834;2023-04-08T15:11:59;93853.31;;;21.87;32.61
48035;BME280;33812;46.480;6.834;2023-04-08T15:16:01;93852.06;;;21.88;32.71
48035;BME280;33812;46.480;6.834;2023-04-08T15:20:03;93847.78;;;21.87;32.50
48035;BME280;33812;46.480;6.834;2023-04-08T15:24:05;93852.06;;;21.88;32.14
48035;BME280;33812;46.480;6.834;2023-04-08T15:28:09;93845.31;;;21.89;32.45
48035;BME280;33812;46.480;6.834;2023-04-08T15:32:10;93847.78;;;21.87;32.28
48035;BME280;33812;46.480;6.834;2023-04-08T15:36:12;93856.38;;;21.89;32.40
48035;BME280;33812;46.480;6.834;2023-04-08T15:40:18;93863.47;;;21.90;32.48
48035;BME280;33812;46.480;6.834;2023-04-08T15:44:22;93856.72;;;21.91;32.32
48035;BME280;33812;46.480;6.834;2023-04-08T15:48:24;93860.28;;;21.92;32.19
48035;BME280;33812;46.480;6.834;2023-04-08T15:52:25;93856.72;;;21.91;32.34
48035;BME280;33812;46.480;6.834;2023-04-08T15:56:27;93867.78;;;21.91;32.37
48035;BME280;33812;46.480;6.834;2023-04-08T16:00:30;93862.25;;;21.91;32.23
48035;BME280;33812;46.480;6.834;2023-04-08T16:04:32;93863.47;;;21.90;32.27
48035;BME280;33812;46.480;6.834;2023-04-08T16:08:34;93847.97;;;21.93;32.07
48035;BME280;33812;46.480;6.834;2023-04-08T16:12:36;93859.81;;;21.93;32.33
48035;BME280;33812;46.480;6.834;2023-04-08T16:16:39;93858.59;;;21.94;32.60
48035;BME280;33812;46.480;6.834;2023-04-08T16:20:42;93860.16;;;21.95;32.57
48035;BME280;33812;46.480;6.834;2023-04-08T16:24:43;93857.72;;;21.97;32.85
48035;BME280;33812;46.480;6.834;2023-04-08T16:28:45;93862.38;;;22.01;33.25
48035;BME280;33812;46.480;6.834;2023-04-08T16:32:49;93856.84;;;22.01;33.71
48035;BME280;33812;46.480;6.834;2023-04-08T16:36:50;93855.63;;;22.02;33.77
48035;BME280;33812;46.480;6.834;2023-04-08T16:40:55;93861.16;;;22.02;34.01
48035;BME280;33812;46.480;6.834;2023-04-08T16:44:57;93861.84;;;22.06;33.99
48035;BME280;33812;46.480;6.834;2023-04-08T16:49:01;93870.13;;;22.06;34.64
48035;BME280;33812;46.480;6.834;2023-04-08T16:53:05;93863.47;;;22.03;34.81
48035;BME280;33812;46.480;6.834;2023-04-08T16:57:07;93869.69;;;22.07;34.93
48035;BME280;33812;46.480;6.834;2023-04-08T17:01:09;93869.69;;;22.07;35.06
48035;BME280;33812;46.480;6.834;2023-04-08T17:05:14;93878.78;;;22.08;35.14
48035;BME280;33812;46.480;6.834;2023-04-08T17:09:16;93881.53;;;22.08;35.33
48035;BME280;33812;46.480;6.834;2023-04-08T17:13:18;93876.44;;;22.06;35.42
48035;BME280;33812;46.480;6.834;2023-04-08T17:17:20;93879.22;;;22.06;35.37
48035;BME280;33812;46.480;6.834;2023-04-08T17:21:23;93886.75;;;22.06;35.21
48035;BME280;33812;46.480;6.834;2023-04-08T17:25:27;93878.78;;;22.08;35.13
48035;BME280;33812;46.480;6.834;2023-04-08T17:29:29;93884.84;;;22.03;34.83
48035;BME280;33812;46.480;6.834;2023-04-08T17:33:31;93887.19;;;22.04;34.76
48035;BME280;33812;46.480;6.834;2023-04-08T17:37:34;93883.28;;;22.02;34.53
48035;BME280;33812;46.480;6.834;2023-04-08T17:41:36;93892.28;;;22.06;34.26
48035;BME280;33812;46.480;6.834;2023-04-08T17:45:38;93896.69;;;22.03;34.37
48035;BME280;33812;46.480;6.834;2023-04-08T17:49:40;93894.38;;;22.02;34.13
48035;BME280;33812;46.480;6.834;2023-04-08T17:53:44;93892.81;;;22.01;34.29
48035;BME280;33812;46.480;6.834;2023-04-08T17:57:46;93896.38;;;22.01;34.53
48035;BME280;33812;46.480;6.834;2023-04-08T18:01:49;93897.13;;;22.02;34.70
48035;BME280;33812;46.480;6.834;2023-04-08T18:05:51;93912.53;;;22.03;34.61
48035;BME280;33812;46.480;6.834;2023-04-08T18:09:55;93910.22;;;22.01;34.60
48035;BME280;33812;46.480;6.834;2023-04-08T18:14:03;93904.53;;;22.05;35.41
48035;BME280;33812;46.480;6.834;2023-04-08T18:18:06;93915.19;;;22.06;35.33
48035;BME280;33812;46.480;6.834;2023-04-08T18:22:16;93906.44;;;22.08;35.85
48035;BME280;33812;46.480;6.834;2023-04-08T18:26:21;93909.22;;;22.08;35.42
48035;BME280;33812;46.480;6.834;2023-04-08T18:30:22;93910.75;;;22.09;35.33
48035;BME280;33812;46.480;6.834;2023-04-08T18:34:25;93904.44;;;22.08;35.45
48035;BME280;33812;46.480;6.834;2023-04-08T18:38:26;93917.53;;;22.08;35.31
48035;BME280;33812;46.480;6.834;2023-04-08T18:42:30;93913.19;;;22.07;34.93
48035;BME280;33812;46.480;6.834;2023-04-08T18:46:31;93923.06;;;22.08;34.98
48035;BME280;33812;46.480;6.834;2023-04-08T18:50:33;93921.50;;;22.07;35.22
48035;BME280;33812;46.480;6.834;2023-04-08T18:54:36;93925.81;;;22.08;35.15
48035;BME280;33812;46.480;6.834;2023-04-08T18:58:39;93928.59;;;22.08;35.07
48035;BME280;33812;46.480;6.834;2023-04-08T19:02:41;93930.13;;;22.09;35.20
48035;BME280;33812;46.480;6.834;2023-04-08T19:06:57;93932.91;;;22.09;35.15
48035;BME280;33812;46.480;6.834;2023-04-08T19:10:59;93931.38;;;22.08;35.01
48035;BME280;33812;46.480;6.834;2023-04-08T19:15:03;93929.34;;;22.08;34.93
48035;BME280;33812;46.480;6.834;2023-04-08T19:19:07;93932.91;;;22.09;35.15
48035;BME280;33812;46.480;6.834;2023-04-08T19:23:18;93938.44;;;22.09;35.10
48035;BME280;33812;46.480;6.834;2023-04-08T19:27:20;93927.38;;;22.09;34.82
48035;BME280;33812;46.480;6.834;2023-04-08T19:31:24;93928.59;;;22.08;35.05
48035;BME280;33812;46.480;6.834;2023-04-08T19:35:27;93938.44;;;22.09;34.96
48035;BME280;33812;46.480;6.834;2023-04-08T19:39:30;93932.56;;;22.07;34.83
48035;BME280;33812;46.480;6.834;2023-04-08T19:43:39;93934.88;;;22.08;34.53
48035;BME280;33812;46.480;6.834;2023-04-08T19:47:49;93939.66;;;22.08;34.44
48035;BME280;33812;46.480;6.834;2023-04-08T19:51:51;93942.44;;;22.08;34.25
48035;BME280;33812;46.480;6.834;2023-04-08T19:55:57;93947.19;;;22.07;34.29
48035;BME280;33812;46.480;6.834;2023-04-08T20:00:00;93949.94;;;22.07;34.22
48035;BME280;33812;46.480;6.834;2023-04-08T20:04:05;93953.94;;;22.06;34.10
48035;BME280;33812;46.480;6.834;2023-04-08T20:08:09;93953.94;;;22.06;33.77
48035;BME280;33812;46.480;6.834;2023-04-08T20:12:11;93951.94;;;22.07;33.88
48035;BME280;33812;46.480;6.834;2023-04-08T20:16:13;93951.94;;;22.07;34.18
48035;BME280;33812;46.480;6.834;2023-04-08T20:20:17;93949.50;;;22.09;34.06
48035;BME280;33812;46.480;6.834;2023-04-08T20:24:19;93939.66;;;22.08;33.86
48035;BME280;33812;46.480;6.834;2023-04-08T20:28:21;93936.56;;;22.06;33.85
48035;BME280;33812;46.480;6.834;2023-04-08T20:32:23;93943.63;;;22.07;33.88
48035;BME280;33812;46.480;6.834;2023-04-08T20:36:26;93952.72;;;22.07;33.99
48035;BME280;33812;46.480;6.834;2023-04-08T20:40:28;93949.16;;;22.07;33.74
48035;BME280;33812;46.480;6.834;2023-04-08T20:44:30;93945.66;;;22.06;33.68
48035;BME280;33812;46.480;6.834;2023-04-08T20:48:32;93947.63;;;22.06;33.57
48035;BME280;33812;46.480;6.834;2023-04-08T20:52:35;93953.16;;;22.06;33.57
48035;BME280;33812;46.480;6.834;2023-04-08T20:56:38;93940.22;;;22.03;33.34
48035;BME280;33812;46.480;6.834;2023-04-08T21:00:39;93939.44;;;22.02;33.40
48035;BME280;33812;46.480;6.834;2023-04-08T21:04:41;93958.69;;;22.06;33.53
48035;BME280;33812;46.480;6.834;2023-04-08T21:08:45;93950.41;;;22.06;33.38
48035;BME280;33812;46.480;6.834;2023-04-08T21:12:47;93946.84;;;22.05;33.22
48035;BME280;33812;46.480;6.834;2023-04-08T21:16:49;93941.75;;;22.04;33.44
48035;BME280;33812;46.480;6.834;2023-04-08T21:20:50;93941.31;;;22.05;33.50
48035;BME280;33812;46.480;6.834;2023-04-08T21:24:53;93943.72;;;22.03;33.40
48035;BME280;33812;46.480;6.834;2023-04-08T21:28:56;93941.75;;;22.04;33.35
48035;BME280;33812;46.480;6.834;2023-04-08T21:32:58;93940.97;;;22.03;33.54
48035;BME280;33812;46.480;6.834;2023-04-08T21:37:00;93941.31;;;22.05;33.42
48035;BME280;33812;46.480;6.834;2023-04-08T21:41:03;93942.97;;;22.03;33.41
48035;BME280;33812;46.480;6.834;2023-04-08T21:45:06;93946.50;;;22.03;33.44
48035;BME280;33812;46.480;6.834;2023-04-08T21:49:08;93948.50;;;22.03;33.46